Time;durP1;ratioP1;P1;durP2;ratioP2;P2;SDS_P1;SDS_P2;PMS_P1;PMS_P2;Temp;Humidity;BMP_temperature;BMP_pressure;BME280_temperature;BME280_humidity;BME280_pressure;Samples;Min_cycle;Max_cycle;Signal;HPM_P1;HPM_P2
2023/01/22 00:02:21;;;;;;;9.82;6.57;;;;;;;;;;5044618;28;20083;-50
2023/01/22 00:04:48;;;;;;;11.50;6.85;;;;;;;;;;5043670;28;20381;-48
2023/01/22 00:07:17;;;;;;;10.82;6.70;;;;;;;;;;5044900;28;20111;-48
2023/01/22 00:09:44;;;;;;;11.38;6.80;;;;;;;;;;5044073;28;20455;-50
2023/01/22 00:12:10;;;;;;;11.05;7.13;;;;;;;;;;5044151;28;20025;-48
2023/01/22 00:14:36;;;;;;;9.02;5.68;;;;;;;;;;5043460;28;20032;-48
2023/01/22 00:17:02;;;;;;;10.48;6.30;;;;;;;;;;5043722;28;20037;-49
2023/01/22 00:19:28;;;;;;;11.18;7.07;;;;;;;;;;5044012;28;20088;-50
2023/01/22 00:21:54;;;;;;;10.68;6.85;;;;;;;;;;5044276;28;20457;-49
2023/01/22 00:24:21;;;;;;;8.68;6.10;;;;;;;;;;5044222;28;20020;-49
2023/01/22 00:26:48;;;;;;;10.00;6.18;;;;;;;;;;5059232;28;20059;-51
2023/01/22 00:29:15;;;;;;;9.48;6.05;;;;;;;;;;5044525;28;20301;-49
2023/01/22 00:31:41;;;;;;;8.02;5.05;;;;;;;;;;5058946;28;20618;-49
2023/01/22 00:34:08;;;;;;;8.75;5.53;;;;;;;;;;5043695;28;20021;-52
2023/01/22 00:36:34;;;;;;;7.40;5.00;;;;;;;;;;5043998;28;20032;-51
2023/01/22 00:39:00;;;;;;;9.02;5.22;;;;;;;;;;5043659;28;20070;-51
2023/01/22 00:41:26;;;;;;;7.38;5.07;;;;;;;;;;5044052;28;20029;-49
2023/01/22 00:43:52;;;;;;;9.27;5.85;;;;;;;;;;5044257;28;20508;-50
2023/01/22 00:46:18;;;;;;;8.50;5.38;;;;;;;;;;5043621;28;20036;-50
2023/01/22 00:48:48;;;;;;;9.30;5.50;;;;;;;;;;5043451;28;20464;-50
2023/01/22 00:51:14;;;;;;;7.10;5.18;;;;;;;;;;5043953;28;20025;-49
2023/01/22 00:53:41;;;;;;;7.90;5.00;;;;;;;;;;5043742;28;20404;-47
2023/01/22 00:56:07;;;;;;;8.00;4.88;;;;;;;;;;5043759;28;20021;-51
2023/01/22 00:58:34;;;;;;;7.85;5.13;;;;;;;;;;5044314;28;20096;-49
2023/01/22 01:01:03;;;;;;;8.30;5.28;;;;;;;;;;5043379;28;20411;-49
2023/01/22 01:03:30;;;;;;;8.82;5.25;;;;;;;;;;5043075;28;20041;-51
2023/01/22 06:11:05;;;;;;;10.13;5.70;;;;;;;;;;5047872;28;20183;-48
2023/01/22 06:13:31;;;;;;;10.30;6.00;;;;;;;;;;5065505;28;20079;-51
2023/01/22 06:15:57;;;;;;;9.35;5.65;;;;;;;;;;5069500;28;20099;-51
2023/01/22 06:18:24;;;;;;;8.50;4.80;;;;;;;;;;5069441;28;20028;-49
2023/01/22 06:20:50;;;;;;;9.02;5.25;;;;;;;;;;5069288;28;20033;-48
2023/01/22 06:23:16;;;;;;;9.65;5.95;;;;;;;;;;5069139;28;20102;-49
2023/01/22 06:25:43;;;;;;;10.30;6.65;;;;;;;;;;5069157;28;20055;-48
2023/01/22 06:28:09;;;;;;;8.70;5.57;;;;;;;;;;5068634;28;20025;-50
2023/01/22 06:30:35;;;;;;;8.90;5.55;;;;;;;;;;5068934;28;20037;-51
2023/01/22 06:33:01;;;;;;;8.00;5.38;;;;;;;;;;5069099;28;20017;-51
2023/01/22 06:35:27;;;;;;;8.30;5.35;;;;;;;;;;5069463;28;20024;-53
2023/01/22 06:37:53;;;;;;;9.13;5.53;;;;;;;;;;5069206;28;20388;-50
2023/01/22 06:40:20;;;;;;;7.85;5.18;;;;;;;;;;5068962;28;20032;-48
2023/01/22 06:42:46;;;;;;;6.82;5.03;;;;;;;;;;5068210;28;20375;-51
2023/01/22 06:45:12;;;;;;;7.90;5.15;;;;;;;;;;5068750;28;20098;-48
2023/01/22 06:47:43;;;;;;;6.65;4.75;;;;;;;;;;5056066;28;20112;-50
2023/01/22 06:50:09;;;;;;;8.40;4.43;;;;;;;;;;5059339;28;20034;-49
2023/01/22 06:52:35;;;;;;;7.35;4.30;;;;;;;;;;5072005;28;20021;-49
2023/01/22 06:55:01;;;;;;;7.22;5.13;;;;;;;;;;5069166;28;20403;-50
2023/01/22 06:57:27;;;;;;;5.53;3.85;;;;;;;;;;5048794;28;20075;-48
2023/01/22 06:59:54;;;;;;;6.43;4.28;;;;;;;;;;5049800;28;20032;-48
2023/01/22 07:02:20;;;;;;;6.57;4.30;;;;;;;;;;5058124;28;20050;-51
2023/01/22 07:04:46;;;;;;;7.95;5.03;;;;;;;;;;5068794;28;20059;-51
2023/01/22 07:07:13;;;;;;;8.77;5.70;;;;;;;;;;5068088;28;20025;-48
2023/01/22 07:09:39;;;;;;;9.35;5.45;;;;;;;;;;5068153;28;20044;-50
2023/01/22 07:12:05;;;;;;;9.73;5.32;;;;;;;;;;5068781;28;20066;-49
2023/01/22 07:14:31;;;;;;;8.43;5.10;;;;;;;;;;5050549;28;20423;-49
2023/01/22 07:16:57;;;;;;;7.72;4.85;;;;;;;;;;5049032;28;20021;-49
2023/01/22 07:19:23;;;;;;;5.68;4.32;;;;;;;;;;5048718;28;20029;-48
2023/01/22 07:21:49;;;;;;;8.77;4.53;;;;;;;;;;5048131;28;20032;-49
2023/01/22 07:24:15;;;;;;;6.40;4.22;;;;;;;;;;5048398;28;20028;-49
2023/01/22 07:26:42;;;;;;;6.70;4.10;;;;;;;;;;5048252;28;20035;-47
2023/01/22 07:29:10;;;;;;;6.60;4.55;;;;;;;;;;5048070;28;20032;-52
2023/01/22 07:31:36;;;;;;;6.22;4.10;;;;;;;;;;5048003;28;20063;-51
2023/01/22 07:34:02;;;;;;;6.57;4.40;;;;;;;;;;5048213;28;20059;-50
2023/01/22 07:36:28;;;;;;;7.18;4.72;;;;;;;;;;5047642;28;20065;-49
2023/01/22 07:38:54;;;;;;;7.18;4.80;;;;;;;;;;5059688;28;20028;-48
2023/01/22 07:41:21;;;;;;;8.35;5.07;;;;;;;;;;5049699;28;20032;-50
2023/01/22 07:43:48;;;;;;;8.93;5.47;;;;;;;;;;5051864;28;20654;-49
2023/01/22 07:46:14;;;;;;;8.40;5.10;;;;;;;;;;5059568;28;20032;-49
2023/01/22 07:48:40;;;;;;;7.80;5.00;;;;;;;;;;5069474;28;20111;-49
2023/01/22 07:51:07;;;;;;;8.75;5.50;;;;;;;;;;5050103;28;20033;-48
2023/01/22 07:53:33;;;;;;;7.68;4.82;;;;;;;;;;5061658;28;20525;-48
2023/01/22 07:56:02;;;;;;;6.60;4.35;;;;;;;;;;5048957;28;20036;-48
2023/01/22 07:58:29;;;;;;;7.75;5.40;;;;;;;;;;5048603;28;20036;-49
2023/01/22 08:00:55;;;;;;;7.50;5.00;;;;;;;;;;5057735;28;20107;-52
2023/01/22 08:03:21;;;;;;;8.75;5.13;;;;;;;;;;5064257;28;20021;-49
2023/01/22 08:05:48;;;;;;;7.65;4.97;;;;;;;;;;5048437;28;20033;-51
2023/01/22 08:08:15;;;;;;;7.40;4.70;;;;;;;;;;5048763;28;20021;-52
2023/01/22 08:10:41;;;;;;;10.07;5.70;;;;;;;;;;5048886;28;20036;-50
2023/01/22 08:13:07;;;;;;;7.85;5.43;;;;;;;;;;5055906;28;20031;-50
2023/01/22 08:15:33;;;;;;;8.50;5.57;;;;;;;;;;5059963;28;20016;-47
2023/01/22 08:17:59;;;;;;;8.27;5.55;;;;;;;;;;5057903;28;20035;-47
2023/01/22 08:20:25;;;;;;;9.35;5.78;;;;;;;;;;5068321;28;20029;-48
2023/01/22 08:22:56;;;;;;;8.68;5.95;;;;;;;;;;5052361;28;20033;-48
2023/01/22 08:25:22;;;;;;;8.75;5.45;;;;;;;;;;5048704;28;20036;-50
2023/01/22 08:27:48;;;;;;;7.50;5.20;;;;;;;;;;5048166;28;20029;-49
2023/01/22 08:30:14;;;;;;;9.75;5.93;;;;;;;;;;5048633;28;20033;-49
2023/01/22 08:32:43;;;;;;;8.57;5.43;;;;;;;;;;5048467;28;20025;-52
2023/01/22 08:35:09;;;;;;;8.07;5.22;;;;;;;;;;5048269;28;20025;-49
2023/01/22 08:37:35;;;;;;;7.70;5.10;;;;;;;;;;5048981;28;20384;-49
2023/01/22 08:40:01;;;;;;;7.90;5.38;;;;;;;;;;5048717;28;20094;-51
2023/01/22 08:42:27;;;;;;;9.23;5.93;;;;;;;;;;5048263;28;20025;-49
2023/01/22 08:44:53;;;;;;;9.55;5.38;;;;;;;;;;5061033;28;20130;-49
2023/01/22 08:47:20;;;;;;;7.53;4.85;;;;;;;;;;5060827;28;20495;-50
2023/01/22 08:49:46;;;;;;;6.85;4.70;;;;;;;;;;5048098;28;20029;-49
2023/01/22 08:52:12;;;;;;;6.43;4.50;;;;;;;;;;5048253;28;20057;-51
2023/01/22 08:54:38;;;;;;;5.78;3.97;;;;;;;;;;5057527;28;20035;-49
2023/01/22 08:57:04;;;;;;;8.20;5.07;;;;;;;;;;5054132;28;20447;-49
2023/01/22 08:59:30;;;;;;;8.75;5.05;;;;;;;;;;5047765;28;20055;-49
2023/01/22 09:01:58;;;;;;;9.77;5.40;;;;;;;;;;5056456;28;20044;-48
2023/01/22 09:04:24;;;;;;;8.95;5.57;;;;;;;;;;5048911;28;20526;-51
2023/01/22 09:06:50;;;;;;;8.88;5.40;;;;;;;;;;5048763;28;20056;-50
2023/01/22 09:09:16;;;;;;;8.73;5.65;;;;;;;;;;5049431;28;20039;-47
2023/01/22 09:11:43;;;;;;;8.93;5.47;;;;;;;;;;5051011;28;20061;-50
2023/01/22 09:14:09;;;;;;;10.02;6.20;;;;;;;;;;5048944;28;20032;-53
2023/01/22 09:16:36;;;;;;;10.50;6.32;;;;;;;;;;5049142;28;20021;-49
2023/01/22 09:19:02;;;;;;;9.05;5.85;;;;;;;;;;5052749;28;20028;-48
2023/01/22 09:21:28;;;;;;;8.00;5.15;;;;;;;;;;5059722;28;20431;-50
2023/01/22 09:23:54;;;;;;;6.97;5.10;;;;;;;;;;5046252;28;20047;-48
2023/01/22 09:26:20;;;;;;;8.52;5.20;;;;;;;;;;5047658;28;20036;-51
2023/01/22 09:28:47;;;;;;;7.80;4.97;;;;;;;;;;5054324;28;20063;-48
2023/01/22 09:31:15;;;;;;;8.63;5.75;;;;;;;;;;5047580;28;20515;-51
2023/01/22 09:33:41;;;;;;;7.50;5.20;;;;;;;;;;5049017;28;20518;-48
2023/01/22 09:36:07;;;;;;;7.68;5.57;;;;;;;;;;5056402;28;20020;-50
2023/01/22 09:38:34;;;;;;;10.50;6.38;;;;;;;;;;5049769;28;20466;-52
2023/01/22 09:41:01;;;;;;;9.63;6.43;;;;;;;;;;5049971;28;20043;-49
2023/01/22 09:43:47;;;;;;;8.07;5.25;;;;;;;;;;5049816;28;20029;-47
2023/01/22 09:46:17;;;;;;;6.97;4.60;;;;;;;;;;5049777;28;20033;-49
2023/01/22 09:48:45;;;;;;;10.55;6.47;;;;;;;;;;5053195;28;20088;-53
2023/01/22 09:51:14;;;;;;;7.68;5.38;;;;;;;;;;5051872;28;20098;-50
2023/01/22 09:53:41;;;;;;;7.72;5.18;;;;;;;;;;5049841;28;20025;-52
2023/01/22 09:56:14;;;;;;;8.40;5.57;;;;;;;;;;5049703;28;20036;-51
2023/01/22 09:58:40;;;;;;;9.20;6.10;;;;;;;;;;5049172;28;20036;-51
2023/01/22 10:01:06;;;;;;;9.70;6.43;;;;;;;;;;5048847;28;20492;-49
2023/01/22 10:03:37;;;;;;;9.50;6.88;;;;;;;;;;5049017;28;20056;-52
2023/01/22 10:06:09;;;;;;;11.07;6.70;;;;;;;;;;5050031;28;20025;-49
2023/01/22 10:08:53;;;;;;;9.88;6.60;;;;;;;;;;5050139;28;20028;-50
2023/01/22 10:11:20;;;;;;;10.70;6.05;;;;;;;;;;5051148;28;20069;-48
2023/01/22 10:13:53;;;;;;;8.23;5.85;;;;;;;;;;5050896;28;20416;-50
2023/01/22 10:16:20;;;;;;;9.68;6.13;;;;;;;;;;5050087;28;20048;-49
2023/01/22 10:18:46;;;;;;;8.07;5.63;;;;;;;;;;5049343;28;20066;-49
2023/01/22 10:21:25;;;;;;;9.95;5.75;;;;;;;;;;5051029;28;20025;-49
2023/01/22 10:23:54;;;;;;;8.90;5.88;;;;;;;;;;5051225;28;20114;-51
2023/01/22 10:26:29;;;;;;;10.38;6.28;;;;;;;;;;5051588;28;20491;-52
2023/01/22 10:28:57;;;;;;;13.35;8.55;;;;;;;;;;5050878;28;20033;-50
2023/01/22 10:31:26;;;;;;;12.65;8.18;;;;;;;;;;5050962;28;20021;-51
2023/01/22 10:34:00;;;;;;;12.00;7.95;;;;;;;;;;5050891;28;20053;-50
2023/01/22 10:36:27;;;;;;;10.70;6.93;;;;;;;;;;5050565;28;20025;-50
2023/01/22 10:39:13;;;;;;;11.70;6.95;;;;;;;;;;5050721;28;20033;-52
2023/01/22 10:41:40;;;;;;;8.50;6.18;;;;;;;;;;5052263;28;20407;-48
2023/01/22 10:44:09;;;;;;;9.02;6.22;;;;;;;;;;5049810;28;20029;-50
2023/01/22 10:46:36;;;;;;;10.02;5.85;;;;;;;;;;5050442;28;20033;-51
2023/01/22 10:49:04;;;;;;;10.90;6.65;;;;;;;;;;5050149;28;20037;-50
2023/01/22 10:51:35;;;;;;;11.38;6.13;;;;;;;;;;5049175;28;20430;-52
2023/01/22 10:54:03;;;;;;;10.27;6.57;;;;;;;;;;5050225;28;20124;-50
2023/01/22 10:56:32;;;;;;;11.05;7.30;;;;;;;;;;5049412;28;20029;-51
2023/01/22 10:58:59;;;;;;;13.15;8.70;;;;;;;;;;5050272;28;20404;-50
2023/01/22 11:01:36;;;;;;;11.55;7.55;;;;;;;;;;5051615;28;20466;-48
2023/01/22 11:04:19;;;;;;;12.52;7.30;;;;;;;;;;5059727;28;20522;-50
2023/01/22 11:06:48;;;;;;;12.70;8.23;;;;;;;;;;5049963;28;20036;-49
2023/01/22 11:09:20;;;;;;;8.95;6.47;;;;;;;;;;5052706;28;20032;-50
2023/01/22 11:11:58;;;;;;;10.30;6.35;;;;;;;;;;5058301;28;20052;-50
2023/01/22 11:14:27;;;;;;;10.00;6.07;;;;;;;;;;5070068;28;20055;-50
2023/01/22 11:16:56;;;;;;;9.05;6.05;;;;;;;;;;5052112;28;20025;-49
2023/01/22 11:19:23;;;;;;;8.10;5.50;;;;;;;;;;5048094;28;20052;-50
2023/01/22 11:21:50;;;;;;;8.68;5.70;;;;;;;;;;5051665;28;20377;-51
2023/01/22 11:24:25;;;;;;;8.48;5.88;;;;;;;;;;5070761;28;20104;-48
2023/01/22 11:27:01;;;;;;;8.65;5.65;;;;;;;;;;5052696;28;20021;-52
2023/01/22 11:29:36;;;;;;;10.55;6.03;;;;;;;;;;5069366;28;20059;-49
2023/01/22 11:32:25;;;;;;;8.82;5.90;;;;;;;;;;5058479;28;20391;-51
2023/01/22 11:35:23;;;;;;;10.30;6.15;;;;;;;;;;5049756;28;20492;-49
2023/01/22 11:38:04;;;;;;;10.95;6.70;;;;;;;;;;5026527;28;20037;-50
2023/01/22 11:40:32;;;;;;;10.40;6.40;;;;;;;;;;5050896;28;20109;-51
2023/01/22 11:43:01;;;;;;;10.13;5.80;;;;;;;;;;5055144;28;20456;-49
2023/01/22 11:45:38;;;;;;;8.40;4.95;;;;;;;;;;5049111;28;20033;-49
2023/01/22 11:48:07;;;;;;;5.90;4.32;;;;;;;;;;5049965;28;20500;-52
2023/01/22 11:50:33;;;;;;;6.93;5.25;;;;;;;;;;5048822;28;20032;-53
2023/01/22 11:52:59;;;;;;;6.82;4.78;;;;;;;;;;5049665;28;20029;-51
2023/01/22 11:55:31;;;;;;;7.65;5.15;;;;;;;;;;5048909;28;20041;-49
2023/01/22 11:58:00;;;;;;;6.38;4.38;;;;;;;;;;5048989;28;20031;-49
2023/01/22 12:00:35;;;;;;;7.10;4.90;;;;;;;;;;5048572;28;20029;-49
2023/01/22 12:03:20;;;;;;;6.57;4.30;;;;;;;;;;5049242;28;20444;-49
2023/01/22 12:05:46;;;;;;;7.57;5.00;;;;;;;;;;5048972;28;20100;-52
2023/01/22 12:08:17;;;;;;;5.28;3.95;;;;;;;;;;5048845;28;20029;-49
2023/01/22 12:11:02;;;;;;;6.10;4.32;;;;;;;;;;5048278;28;20095;-52
2023/01/22 12:13:28;;;;;;;6.63;4.30;;;;;;;;;;5048776;28;20044;-49
2023/01/22 12:15:54;;;;;;;5.80;3.95;;;;;;;;;;5048670;28;20087;-51
2023/01/22 12:18:26;;;;;;;6.40;4.50;;;;;;;;;;5047805;28;20055;-48
2023/01/22 12:21:13;;;;;;;8.00;5.07;;;;;;;;;;5048468;28;20214;-49
2023/01/22 12:23:42;;;;;;;7.07;4.22;;;;;;;;;;5047885;28;20033;-51
2023/01/22 12:26:08;;;;;;;7.28;4.80;;;;;;;;;;5048522;28;20268;-48
2023/01/22 12:29:10;;;;;;;6.85;4.80;;;;;;;;;;5048458;28;20495;-52
2023/01/22 12:31:39;;;;;;;8.23;5.00;;;;;;;;;;4981683;28;20035;-48
2023/01/22 12:34:12;;;;;;;8.05;5.00;;;;;;;;;;5032493;28;20419;-50
2023/01/22 12:36:39;;;;;;;6.60;4.70;;;;;;;;;;5045398;28;20029;-48
2023/01/22 12:39:16;;;;;;;8.30;5.57;;;;;;;;;;5045137;28;20589;-46
2023/01/22 12:41:45;;;;;;;7.63;4.97;;;;;;;;;;5045796;28;20523;-49
2023/01/22 12:44:24;;;;;;;8.43;4.30;;;;;;;;;;5045494;28;20025;-50
2023/01/22 12:46:55;;;;;;;6.60;4.38;;;;;;;;;;5046384;28;20680;-51
2023/01/22 12:49:21;;;;;;;7.70;4.75;;;;;;;;;;5055209;28;20031;-48
2023/01/22 12:51:48;;;;;;;7.03;4.43;;;;;;;;;;5048868;28;20017;-48
2023/01/22 12:54:35;;;;;;;9.30;4.88;;;;;;;;;;5045636;28;20029;-48
2023/01/22 12:57:16;;;;;;;7.75;4.95;;;;;;;;;;5046099;28;20021;-47
2023/01/22 12:59:42;;;;;;;7.90;4.40;;;;;;;;;;5045068;28;20101;-49
2023/01/22 13:02:29;;;;;;;9.23;5.22;;;;;;;;;;5045663;28;20120;-48
2023/01/22 13:05:09;;;;;;;5.82;4.38;;;;;;;;;;5045381;28;20044;-47
2023/01/22 13:07:37;;;;;;;6.70;4.30;;;;;;;;;;5049727;28;20033;-49
2023/01/22 13:10:05;;;;;;;7.70;4.80;;;;;;;;;;5052612;28;20040;-49
2023/01/22 13:12:42;;;;;;;6.28;3.85;;;;;;;;;;5048869;28;20025;-49
2023/01/22 13:15:29;;;;;;;7.40;4.40;;;;;;;;;;5049149;28;20403;-49
2023/01/22 13:18:01;;;;;;;7.35;4.80;;;;;;;;;;5052421;28;20021;-49
2023/01/22 13:20:29;;;;;;;10.40;5.82;;;;;;;;;;5049628;28;20078;-50
2023/01/22 13:22:57;;;;;;;9.95;5.95;;;;;;;;;;5050882;28;20032;-50
2023/01/22 13:25:30;;;;;;;9.15;5.40;;;;;;;;;;5053366;28;20042;-47
2023/01/22 13:27:57;;;;;;;9.53;5.73;;;;;;;;;;5068991;28;20375;-48
2023/01/22 13:30:27;;;;;;;8.68;5.75;;;;;;;;;;5056317;28;20275;-46
2023/01/22 13:33:08;;;;;;;7.55;4.90;;;;;;;;;;5049410;28;20032;-50
2023/01/22 13:35:35;;;;;;;8.77;5.55;;;;;;;;;;5054184;28;20029;-49
2023/01/22 13:38:01;;;;;;;7.63;4.97;;;;;;;;;;5065626;28;20025;-47
2023/01/22 13:40:28;;;;;;;7.45;4.90;;;;;;;;;;5066248;28;20780;-50
2023/01/22 13:42:54;;;;;;;8.73;5.03;;;;;;;;;;5049444;28;20491;-50
2023/01/22 13:45:22;;;;;;;8.60;5.32;;;;;;;;;;5048580;28;20048;-50
2023/01/22 13:47:49;;;;;;;8.52;5.80;;;;;;;;;;5058643;28;20029;-50
2023/01/22 13:50:22;;;;;;;10.18;6.43;;;;;;;;;;5052503;28;20087;-50
2023/01/22 13:52:49;;;;;;;9.68;5.57;;;;;;;;;;5048616;28;20025;-49
2023/01/22 13:55:19;;;;;;;8.90;5.45;;;;;;;;;;5048240;28;20421;-49
2023/01/22 13:57:49;;;;;;;8.25;5.43;;;;;;;;;;5051046;28;20021;-53
2023/01/22 14:00:29;;;;;;;8.52;5.43;;;;;;;;;;5048174;28;20021;-49
2023/01/22 14:02:56;;;;;;;7.55;5.10;;;;;;;;;;5049128;28;20025;-51
2023/01/22 14:05:23;;;;;;;7.35;5.07;;;;;;;;;;5055042;28;20079;-51
2023/01/22 14:07:50;;;;;;;7.07;4.65;;;;;;;;;;5047981;28;20025;-50
2023/01/22 14:10:20;;;;;;;8.68;5.18;;;;;;;;;;5052340;28;20040;-48
2023/01/22 14:12:57;;;;;;;8.10;5.30;;;;;;;;;;5046589;28;20017;-47
2023/01/22 14:15:23;;;;;;;9.32;5.70;;;;;;;;;;5048254;28;20044;-48
2023/01/22 14:17:49;;;;;;;8.15;5.32;;;;;;;;;;5043570;28;20063;-49
2023/01/22 14:20:15;;;;;;;9.65;5.82;;;;;;;;;;5051480;28;20032;-47
2023/01/22 14:22:41;;;;;;;7.60;4.97;;;;;;;;;;5047218;28;20401;-50
2023/01/22 14:25:08;;;;;;;11.10;6.18;;;;;;;;;;5044451;28;20277;-47
2023/01/22 14:27:40;;;;;;;8.77;5.78;;;;;;;;;;5046373;28;20111;-48
2023/01/22 14:30:07;;;;;;;10.32;5.72;;;;;;;;;;5045780;28;20116;-49
2023/01/22 14:32:33;;;;;;;8.82;5.30;;;;;;;;;;5064319;28;20399;-47
2023/01/22 14:35:00;;;;;;;9.63;5.32;;;;;;;;;;5050096;28;20507;-50
2023/01/22 14:37:26;;;;;;;8.30;5.07;;;;;;;;;;5052245;28;20459;-48
2023/01/22 14:39:52;;;;;;;8.30;5.07;;;;;;;;;;5045471;28;20361;-49
2023/01/22 14:42:18;;;;;;;8.05;5.13;;;;;;;;;;5045794;28;20029;-48
2023/01/22 14:44:44;;;;;;;9.57;6.05;;;;;;;;;;5046619;28;20033;-47
2023/01/22 14:47:10;;;;;;;8.00;4.93;;;;;;;;;;5045082;28;20147;-49
2023/01/22 14:49:39;;;;;;;11.30;6.25;;;;;;;;;;5046379;28;20496;-51
2023/01/22 14:52:05;;;;;;;7.93;4.93;;;;;;;;;;5044154;28;20415;-51
2023/01/22 14:54:31;;;;;;;9.85;5.43;;;;;;;;;;5044671;28;20040;-46
2023/01/22 14:57:02;;;;;;;9.15;5.80;;;;;;;;;;5045669;28;20033;-49
2023/01/22 14:59:28;;;;;;;8.90;5.25;;;;;;;;;;5043885;28;20500;-46
2023/01/22 15:01:54;;;;;;;9.82;5.45;;;;;;;;;;5045402;28;20036;-48
2023/01/22 15:04:20;;;;;;;9.65;6.07;;;;;;;;;;5045337;28;20032;-48
2023/01/22 15:06:45;;;;;;;11.00;6.03;;;;;;;;;;5043983;28;20116;-50
2023/01/22 15:09:11;;;;;;;9.43;5.70;;;;;;;;;;5044570;28;20112;-45
2023/01/22 15:11:37;;;;;;;10.00;6.20;;;;;;;;;;5046822;28;20602;-47
2023/01/22 15:14:05;;;;;;;9.77;6.15;;;;;;;;;;5051250;28;20025;-46
2023/01/22 15:16:31;;;;;;;9.63;6.18;;;;;;;;;;5045435;28;20139;-48
2023/01/22 15:18:58;;;;;;;8.80;5.22;;;;;;;;;;5047192;28;20028;-49
2023/01/22 15:21:24;;;;;;;9.02;5.45;;;;;;;;;;5046824;28;20028;-47
2023/01/22 15:23:50;;;;;;;8.18;5.00;;;;;;;;;;5048555;28;20124;-47
2023/01/22 15:26:27;;;;;;;10.43;6.35;;;;;;;;;;5051406;28;20025;-49
2023/01/22 15:28:54;;;;;;;7.25;4.93;;;;;;;;;;5045223;28;20059;-48
2023/01/22 15:31:20;;;;;;;9.18;5.65;;;;;;;;;;5050399;28;20028;-50
2023/01/22 15:33:46;;;;;;;7.95;5.00;;;;;;;;;;5044525;28;20029;-48
2023/01/22 15:36:12;;;;;;;8.25;5.07;;;;;;;;;;5044729;28;20488;-47
2023/01/22 15:38:38;;;;;;;9.32;5.70;;;;;;;;;;5044706;28;20031;-50
2023/01/22 15:41:05;;;;;;;6.60;4.80;;;;;;;;;;5046754;28;20067;-50
2023/01/22 15:43:31;;;;;;;7.28;5.03;;;;;;;;;;5044806;28;20029;-49
2023/01/22 15:45:57;;;;;;;8.07;5.57;;;;;;;;;;5044826;28;20043;-47
2023/01/22 15:48:23;;;;;;;9.13;5.65;;;;;;;;;;5044273;28;20032;-48
2023/01/22 15:50:50;;;;;;;10.93;5.68;;;;;;;;;;5044669;28;20033;-47
2023/01/22 15:53:16;;;;;;;9.00;5.60;;;;;;;;;;5044034;28;20104;-46
2023/01/22 15:55:48;;;;;;;8.98;5.53;;;;;;;;;;5046134;28;20090;-47
2023/01/22 15:58:14;;;;;;;8.40;5.07;;;;;;;;;;5044494;28;20345;-47
2023/01/22 16:00:40;;;;;;;8.35;5.25;;;;;;;;;;5045181;28;20036;-48
2023/01/22 16:03:06;;;;;;;7.90;5.47;;;;;;;;;;5044866;28;20031;-49
2023/01/22 16:05:32;;;;;;;9.98;5.55;;;;;;;;;;5043771;28;20032;-49
2023/01/22 16:07:58;;;;;;;10.45;6.18;;;;;;;;;;5047749;28;20060;-46
2023/01/22 16:10:24;;;;;;;11.35;6.50;;;;;;;;;;5044299;28;20029;-48
2023/01/22 16:12:50;;;;;;;12.00;6.50;;;;;;;;;;5043083;28;20027;-47
2023/01/22 16:15:16;;;;;;;8.80;5.65;;;;;;;;;;5042789;28;20056;-51
2023/01/22 16:17:45;;;;;;;10.52;6.45;;;;;;;;;;5044257;28;20111;-47
2023/01/22 16:20:11;;;;;;;10.43;6.57;;;;;;;;;;5044495;28;20029;-47
2023/01/22 16:22:37;;;;;;;9.05;6.20;;;;;;;;;;5044965;28;20043;-50
2023/01/22 16:25:03;;;;;;;10.38;6.15;;;;;;;;;;5043751;28;20033;-46
2023/01/22 16:27:29;;;;;;;12.57;6.82;;;;;;;;;;5043739;28;20033;-46
2023/01/22 16:29:55;;;;;;;11.98;7.45;;;;;;;;;;5043557;28;21323;-48
2023/01/22 16:32:21;;;;;;;11.07;6.95;;;;;;;;;;5045908;28;20090;-50
2023/01/22 16:34:47;;;;;;;11.88;6.93;;;;;;;;;;5045079;28;20100;-47
2023/01/22 16:37:13;;;;;;;10.48;6.60;;;;;;;;;;5055705;28;20124;-48
2023/01/22 16:39:39;;;;;;;10.50;6.68;;;;;;;;;;5045120;28;20480;-51
2023/01/22 16:42:06;;;;;;;11.60;7.03;;;;;;;;;;5044237;28;20048;-48
2023/01/22 16:44:32;;;;;;;11.85;7.53;;;;;;;;;;5044282;28;20082;-47
2023/01/22 16:46:59;;;;;;;12.35;7.68;;;;;;;;;;5043114;28;20029;-46
2023/01/22 16:49:27;;;;;;;11.95;7.13;;;;;;;;;;5054458;28;20102;-47
2023/01/22 16:51:54;;;;;;;15.45;8.77;;;;;;;;;;5050841;28;20021;-47
2023/01/22 16:54:26;;;;;;;14.48;8.05;;;;;;;;;;5045341;28;20025;-46
2023/01/22 16:56:53;;;;;;;14.80;8.40;;;;;;;;;;5045094;28;20021;-48
2023/01/22 16:59:19;;;;;;;12.40;6.72;;;;;;;;;;5034356;28;20108;-48
2023/01/22 17:01:45;;;;;;;13.60;7.57;;;;;;;;;;5045529;28;20025;-47
2023/01/22 17:04:11;;;;;;;11.52;7.20;;;;;;;;;;5043770;28;20116;-49
2023/01/22 17:06:46;;;;;;;10.85;6.75;;;;;;;;;;5044970;28;20053;-47
2023/01/22 17:09:14;;;;;;;14.32;8.48;;;;;;;;;;5041366;28;20033;-49
2023/01/22 17:11:42;;;;;;;12.35;7.07;;;;;;;;;;5047978;28;20029;-47
2023/01/22 17:14:08;;;;;;;11.18;6.75;;;;;;;;;;5046896;28;20035;-48
2023/01/22 17:16:35;;;;;;;10.27;6.57;;;;;;;;;;5044903;28;20021;-47
2023/01/22 17:19:02;;;;;;;10.00;6.15;;;;;;;;;;5052910;28;20035;-48
2023/01/22 17:21:28;;;;;;;9.65;6.10;;;;;;;;;;5060901;28;20521;-48
2023/01/22 17:23:54;;;;;;;10.75;6.38;;;;;;;;;;5062147;28;20036;-49
2023/01/22 17:26:20;;;;;;;10.48;6.10;;;;;;;;;;5047898;28;20055;-52
2023/01/22 17:28:46;;;;;;;10.13;6.13;;;;;;;;;;5051115;28;20540;-49
2023/01/22 17:31:17;;;;;;;9.80;6.35;;;;;;;;;;5045053;28;20595;-48
2023/01/22 17:33:44;;;;;;;11.90;7.18;;;;;;;;;;5042765;28;20400;-48
2023/01/22 17:36:11;;;;;;;11.55;7.47;;;;;;;;;;5043066;28;20056;-46
2023/01/22 17:38:37;;;;;;;11.55;7.03;;;;;;;;;;5042478;28;20024;-46
2023/01/22 17:41:06;;;;;;;10.65;6.63;;;;;;;;;;5042789;28;20029;-47
2023/01/22 17:43:33;;;;;;;9.57;6.10;;;;;;;;;;5043156;28;20104;-48
2023/01/22 17:45:59;;;;;;;9.57;6.25;;;;;;;;;;5041684;28;20033;-46
2023/01/22 17:48:26;;;;;;;10.40;6.10;;;;;;;;;;5042666;28;20034;-47
2023/01/22 17:50:52;;;;;;;9.68;5.85;;;;;;;;;;5045891;28;20081;-47
2023/01/22 17:53:19;;;;;;;8.98;5.72;;;;;;;;;;5045813;28;20033;-50
2023/01/22 17:55:46;;;;;;;10.20;6.28;;;;;;;;;;5047185;28;20484;-47
2023/01/22 17:58:12;;;;;;;10.20;5.88;;;;;;;;;;5048737;28;20047;-48
2023/01/22 18:00:38;;;;;;;11.90;6.65;;;;;;;;;;5047074;28;20028;-46
2023/01/22 18:03:04;;;;;;;9.85;6.53;;;;;;;;;;5046172;28;20029;-49
2023/01/22 18:05:32;;;;;;;10.93;6.50;;;;;;;;;;5046334;28;20154;-47
2023/01/22 18:07:58;;;;;;;10.15;6.03;;;;;;;;;;5045117;28;20032;-50
2023/01/22 18:10:23;;;;;;;9.98;5.75;;;;;;;;;;5047064;28;20025;-48
2023/01/22 18:12:49;;;;;;;9.13;5.70;;;;;;;;;;5047022;28;20420;-50
2023/01/22 18:15:15;;;;;;;7.82;5.30;;;;;;;;;;5047146;28;20028;-50
2023/01/22 18:17:41;;;;;;;7.38;5.15;;;;;;;;;;5051153;28;20028;-45
2023/01/22 18:20:08;;;;;;;10.75;5.78;;;;;;;;;;5049343;28;20029;-47
2023/01/22 18:22:34;;;;;;;10.90;6.53;;;;;;;;;;5047697;28;20071;-47
2023/01/22 18:25:01;;;;;;;10.82;6.57;;;;;;;;;;5048191;28;20126;-47
2023/01/22 18:27:28;;;;;;;9.48;6.13;;;;;;;;;;5047005;28;20032;-50
2023/01/22 18:29:54;;;;;;;9.75;5.97;;;;;;;;;;5048369;28;20056;-50
2023/01/22 18:32:21;;;;;;;9.98;6.55;;;;;;;;;;5049042;28;20025;-49
2023/01/22 18:34:47;;;;;;;9.48;5.90;;;;;;;;;;5062343;28;20036;-49
2023/01/22 18:37:13;;;;;;;8.90;5.30;;;;;;;;;;5045666;28;20029;-50
2023/01/22 18:39:40;;;;;;;8.80;5.88;;;;;;;;;;5047258;28;20117;-49
2023/01/22 18:42:06;;;;;;;9.90;6.15;;;;;;;;;;5047759;28;20422;-48
2023/01/22 18:44:32;;;;;;;10.32;6.03;;;;;;;;;;5051088;28;20029;-47
2023/01/22 18:47:00;;;;;;;8.45;5.47;;;;;;;;;;5046647;28;20215;-47
2023/01/22 18:49:27;;;;;;;9.18;5.72;;;;;;;;;;5047258;28;20017;-47
2023/01/22 18:51:57;;;;;;;8.55;5.82;;;;;;;;;;5047190;28;20065;-47
2023/01/22 18:54:24;;;;;;;9.82;6.00;;;;;;;;;;5047790;28;20082;-47
2023/01/22 18:56:51;;;;;;;11.95;7.40;;;;;;;;;;5044544;28;20471;-48
2023/01/22 18:59:18;;;;;;;8.57;6.18;;;;;;;;;;5046607;28;20052;-48
2023/01/22 19:01:50;;;;;;;9.82;6.45;;;;;;;;;;5046133;28;20581;-46
2023/01/22 19:04:19;;;;;;;10.38;6.00;;;;;;;;;;5044580;28;20021;-46
2023/01/22 19:06:47;;;;;;;9.10;6.20;;;;;;;;;;5045391;28;20029;-46
2023/01/22 19:09:13;;;;;;;10.05;5.75;;;;;;;;;;5045646;28;20397;-47
2023/01/22 19:11:41;;;;;;;9.18;5.65;;;;;;;;;;5045068;28;20040;-49
2023/01/22 19:14:08;;;;;;;8.70;5.82;;;;;;;;;;5046033;28;20028;-49
2023/01/22 19:16:35;;;;;;;8.77;5.57;;;;;;;;;;5046743;28;20469;-46
2023/01/22 19:19:02;;;;;;;8.15;5.15;;;;;;;;;;5046084;28;20027;-48
2023/01/22 19:21:29;;;;;;;9.02;5.68;;;;;;;;;;5046065;28;20039;-48
2023/01/22 19:23:57;;;;;;;8.48;5.20;;;;;;;;;;5046026;28;20151;-49
2023/01/22 19:26:26;;;;;;;8.02;5.13;;;;;;;;;;5043742;28;20039;-49
2023/01/22 19:28:57;;;;;;;9.05;5.32;;;;;;;;;;5049429;28;20088;-52
2023/01/22 19:31:27;;;;;;;9.20;5.93;;;;;;;;;;5049341;28;20427;-51
2023/01/22 19:33:55;;;;;;;8.73;5.22;;;;;;;;;;5050520;28;20585;-49
2023/01/22 19:36:22;;;;;;;9.20;5.65;;;;;;;;;;5045827;28;20391;-53
2023/01/22 19:38:48;;;;;;;9.40;6.05;;;;;;;;;;5045178;28;20056;-48
2023/01/22 19:41:15;;;;;;;8.57;5.57;;;;;;;;;;5045764;28;20495;-47
2023/01/22 19:43:41;;;;;;;8.15;5.40;;;;;;;;;;5046607;28;20025;-49
2023/01/22 19:46:09;;;;;;;8.93;5.57;;;;;;;;;;5046700;28;20029;-48
2023/01/22 19:48:35;;;;;;;8.32;5.70;;;;;;;;;;5045464;28;20091;-50
2023/01/22 19:51:02;;;;;;;9.20;5.72;;;;;;;;;;5045469;28;20036;-49